createdAt,value
2022-09-30T00:01:09.432Z,5.73
2022-09-30T00:03:39.210Z,5.68
2022-09-30T00:06:11.020Z,5.67
2022-09-30T00:08:41.061Z,5.65
2022-09-30T00:11:13.622Z,5.67
2022-09-30T00:13:47.155Z,5.63
2022-09-30T00:16:18.338Z,5.59
2022-09-30T00:18:48.520Z,5.59
2022-09-30T00:21:18.792Z,5.57
2022-09-30T00:23:48.527Z,5.55
2022-09-30T00:26:20.427Z,5.51
2022-09-30T00:28:55.939Z,5.50
2022-09-30T00:31:26.534Z,5.51
2022-09-30T00:34:09.475Z,5.48
2022-09-30T00:36:43.748Z,5.46
2022-09-30T00:39:16.229Z,5.43
2022-09-30T00:41:46.866Z,5.42
2022-09-30T00:44:51.254Z,5.38
2022-09-30T00:47:43.425Z,5.36
2022-09-30T00:50:31.654Z,5.35
2022-09-30T00:53:06.320Z,5.32
2022-09-30T00:55:42.594Z,5.29
2022-09-30T00:58:15.336Z,5.29
2022-09-30T01:00:48.322Z,5.27
2022-09-30T01:03:17.934Z,5.26
2022-09-30T01:05:47.486Z,5.27
2022-09-30T01:08:18.225Z,5.24
2022-09-30T01:10:48.092Z,5.24
2022-09-30T01:13:18.282Z,5.21
2022-09-30T01:16:05.670Z,5.18
2022-09-30T01:18:43.687Z,5.17
2022-09-30T01:21:43.157Z,5.18
2022-09-30T01:24:21.141Z,5.16
2022-09-30T01:27:02.762Z,5.11
2022-09-30T01:30:04.901Z,5.10
2022-09-30T01:32:49.170Z,5.10
2022-09-30T01:35:27.767Z,5.07
2022-09-30T01:38:04.578Z,5.07
2022-09-30T01:40:42.286Z,5.08
2022-09-30T01:43:15.052Z,5.06
2022-09-30T01:45:49.235Z,5.11
2022-09-30T01:48:26.013Z,5.08
2022-09-30T01:50:59.476Z,5.06
2022-09-30T01:53:35.315Z,5.07
2022-09-30T01:56:08.924Z,4.93
2022-09-30T01:58:43.532Z,4.90
2022-09-30T02:01:18.221Z,4.87
2022-09-30T02:03:52.263Z,4.84
2022-09-30T02:06:24.627Z,4.87
2022-09-30T02:08:57.659Z,4.89
2022-09-30T02:11:29.879Z,4.89
2022-09-30T02:14:03.169Z,4.85
2022-09-30T02:16:36.810Z,4.85
2022-09-30T02:19:13.643Z,4.84
2022-09-30T02:21:44.861Z,4.83
2022-09-30T02:24:18.166Z,4.82
2022-09-30T02:26:48.827Z,4.73
2022-09-30T02:29:20.139Z,4.71
2022-09-30T02:31:52.567Z,4.69
2022-09-30T02:34:27.431Z,4.67
2022-09-30T02:37:00.631Z,4.67
2022-09-30T02:39:34.861Z,4.66
2022-09-30T02:42:10.816Z,4.63
2022-09-30T02:44:42.096Z,4.62
2022-09-30T02:47:15.808Z,4.62
2022-09-30T02:49:52.450Z,4.59
2022-09-30T02:52:28.759Z,4.56
2022-09-30T02:55:07.145Z,4.53
2022-09-30T02:57:40.890Z,4.50
2022-09-30T03:00:13.246Z,4.46
2022-09-30T03:02:43.270Z,4.47
2022-09-30T03:05:17.651Z,4.45
2022-09-30T03:07:47.329Z,4.42
2022-09-30T03:10:18.171Z,4.43
2022-09-30T03:13:09.008Z,4.42
2022-09-30T03:15:48.929Z,4.43
2022-09-30T03:18:39.027Z,4.44
2022-09-30T03:21:22.810Z,4.42
2022-09-30T03:24:03.793Z,4.41
2022-09-30T03:26:40.602Z,4.41
2022-09-30T03:29:16.839Z,4.38
2022-09-30T03:31:55.549Z,4.36
2022-09-30T03:34:29.134Z,4.37
2022-09-30T03:37:08.723Z,4.35
2022-09-30T03:39:46.962Z,4.34
2022-09-30T03:42:22.883Z,4.32
2022-09-30T03:45:00.790Z,4.29
2022-09-30T03:47:31.431Z,4.29
2022-09-30T03:50:03.910Z,4.28
2022-09-30T03:52:36.605Z,4.25
2022-09-30T03:55:08.701Z,4.22
2022-09-30T03:57:38.312Z,4.22
2022-09-30T04:00:09.812Z,4.21
2022-09-30T04:02:39.370Z,4.17
2022-09-30T04:05:10.282Z,4.17
2022-09-30T04:07:42.449Z,4.15
2022-09-30T04:10:12.635Z,4.13
2022-09-30T04:12:46.915Z,4.14
2022-09-30T04:15:16.700Z,4.13
2022-09-30T04:17:46.220Z,4.11
2022-09-30T04:20:15.893Z,4.11
2022-09-30T04:22:48.127Z,4.11
2022-09-30T04:25:17.980Z,4.07
2022-09-30T04:27:47.574Z,4.06
2022-09-30T04:30:20.228Z,4.05
2022-09-30T04:32:52.038Z,4.05
2022-09-30T04:35:21.699Z,4.05
2022-09-30T04:37:53.825Z,4.04
2022-09-30T04:40:23.559Z,4.01
2022-09-30T04:42:53.478Z,3.99
2022-09-30T04:45:24.506Z,3.97
2022-09-30T04:47:54.082Z,3.93
2022-09-30T04:50:23.657Z,3.93
2022-09-30T04:52:57.276Z,3.91
2022-09-30T04:55:26.927Z,3.92
2022-09-30T04:57:57.445Z,3.90
2022-09-30T05:00:27.317Z,3.91
2022-09-30T05:02:57.726Z,3.90
2022-09-30T05:05:27.363Z,3.94
2022-09-30T05:08:02.882Z,3.88
2022-09-30T05:10:32.750Z,3.90
2022-09-30T05:13:02.295Z,3.91
2022-09-30T05:15:31.868Z,3.89
2022-09-30T05:18:01.898Z,3.88
2022-09-30T05:20:31.447Z,3.87
2022-09-30T05:23:03.582Z,3.88
2022-09-30T05:25:33.127Z,3.87
2022-09-30T05:28:03.121Z,3.88
2022-09-30T05:30:32.700Z,3.88
2022-09-30T05:33:02.271Z,3.88
2022-09-30T05:35:32.221Z,3.89
2022-09-30T05:38:04.764Z,3.88
2022-09-30T05:40:34.589Z,3.87
2022-09-30T05:43:04.213Z,3.98
2022-09-30T05:45:33.972Z,3.96
2022-09-30T05:48:04.500Z,3.97
2022-09-30T05:50:34.072Z,3.85
2022-09-30T05:53:06.323Z,3.82
2022-09-30T05:55:39.192Z,3.82
2022-09-30T05:58:08.927Z,3.83
2022-09-30T06:00:38.455Z,3.83
2022-09-30T06:03:08.105Z,3.85
2022-09-30T06:05:37.851Z,3.88
2022-09-30T06:08:10.103Z,3.91
2022-09-30T06:10:39.833Z,3.92
2022-09-30T06:13:09.386Z,3.91
2022-09-30T06:15:41.377Z,3.96
2022-09-30T06:18:17.002Z,4.00
2022-09-30T06:20:47.299Z,4.02
2022-09-30T06:23:20.320Z,4.04
2022-09-30T06:25:53.145Z,4.05
2022-09-30T06:28:23.259Z,4.07
2022-09-30T06:30:53.537Z,4.07
2022-09-30T06:33:23.619Z,4.09
2022-09-30T06:35:53.743Z,4.10
2022-09-30T06:38:28.691Z,4.12
2022-09-30T06:40:58.286Z,4.13
2022-09-30T06:43:27.945Z,4.15
2022-09-30T06:46:10.706Z,4.17
2022-09-30T06:48:44.729Z,4.19
2022-09-30T06:51:14.271Z,4.19
2022-09-30T06:53:49.015Z,4.21
2022-09-30T06:56:22.751Z,4.21
2022-09-30T06:58:52.291Z,4.22
2022-09-30T07:01:21.945Z,4.25
2022-09-30T07:03:58.095Z,4.27
2022-09-30T07:06:29.178Z,4.31
2022-09-30T07:09:01.391Z,4.38
2022-09-30T07:11:31.045Z,4.44
2022-09-30T07:14:00.611Z,4.48
2022-09-30T07:16:31.122Z,4.55
2022-09-30T07:19:01.270Z,4.62
2022-09-30T07:21:31.612Z,4.68
2022-09-30T07:24:04.183Z,4.74
2022-09-30T07:26:33.824Z,4.81
2022-09-30T07:29:03.411Z,4.86
2022-09-30T07:31:35.101Z,4.91
2022-09-30T07:34:07.187Z,5.01
2022-09-30T07:36:38.245Z,5.08
2022-09-30T07:39:12.456Z,5.13
2022-09-30T07:41:45.187Z,5.16
2022-09-30T07:44:16.590Z,5.23
2022-09-30T07:46:47.189Z,5.29
2022-09-30T07:49:24.603Z,5.37
2022-09-30T07:51:55.897Z,5.44
2022-09-30T07:54:29.854Z,5.52
2022-09-30T07:57:15.958Z,5.60
2022-09-30T07:59:45.773Z,5.69
2022-09-30T08:02:18.324Z,5.79
2022-09-30T08:04:48.425Z,5.95
2022-09-30T08:07:20.236Z,6.09
2022-09-30T08:09:52.622Z,6.27
2022-09-30T08:12:22.271Z,6.41
2022-09-30T08:14:51.935Z,6.57
2022-09-30T08:17:21.724Z,6.72
2022-09-30T08:19:51.308Z,6.93
2022-09-30T08:22:21.005Z,7.07
2022-09-30T08:24:53.192Z,7.23
2022-09-30T08:27:22.757Z,7.40
2022-09-30T08:29:58.210Z,7.52
2022-09-30T08:32:32.711Z,7.71
2022-09-30T08:35:02.304Z,7.90
2022-09-30T08:37:31.912Z,8.04
2022-09-30T08:40:04.661Z,8.25
2022-09-30T08:42:50.545Z,8.39
2022-09-30T08:45:38.136Z,8.59
2022-09-30T08:48:19.346Z,8.75
2022-09-30T08:50:56.579Z,8.91
2022-09-30T08:53:30.245Z,9.04
2022-09-30T08:56:03.135Z,9.17
2022-09-30T08:58:35.335Z,9.30
2022-09-30T09:01:06.926Z,9.43
2022-09-30T09:03:36.726Z,9.58
2022-09-30T09:06:13.817Z,9.69
2022-09-30T09:08:49.420Z,9.84
2022-09-30T09:11:23.965Z,10.04
2022-09-30T09:13:53.941Z,10.17
2022-09-30T09:16:25.163Z,10.27
2022-09-30T09:18:55.864Z,10.43
2022-09-30T09:21:26.179Z,10.53
2022-09-30T09:23:56.142Z,10.65
2022-09-30T09:26:28.033Z,10.78
2022-09-30T09:29:03.130Z,10.86
2022-09-30T09:31:32.591Z,10.97
2022-09-30T09:34:03.156Z,11.04
2022-09-30T09:36:35.873Z,11.13
2022-09-30T09:39:18.200Z,11.24
2022-09-30T09:41:51.755Z,11.34
2022-09-30T09:44:22.438Z,11.47
2022-09-30T09:46:52.779Z,11.54
2022-09-30T09:49:41.817Z,11.63
2022-09-30T09:52:28.999Z,11.72
2022-09-30T09:55:00.830Z,11.83
2022-09-30T09:57:33.944Z,11.93
2022-09-30T10:00:23.847Z,12.03
2022-09-30T10:03:03.924Z,12.12
2022-09-30T10:05:39.602Z,12.23
2022-09-30T10:08:13.272Z,12.32
2022-09-30T10:11:00.235Z,12.41
2022-09-30T10:13:32.505Z,12.45
2022-09-30T10:16:02.349Z,12.53
2022-09-30T10:18:32.039Z,12.56
2022-09-30T10:21:01.988Z,12.64
2022-09-30T10:23:32.400Z,12.69
2022-09-30T10:26:06.545Z,12.79
2022-09-30T10:28:47.094Z,12.87
2022-09-30T10:31:17.145Z,12.98
2022-09-30T10:33:46.728Z,13.00
2022-09-30T10:36:19.460Z,13.04
2022-09-30T10:38:51.373Z,13.12
2022-09-30T10:41:24.493Z,13.17
2022-09-30T10:43:57.825Z,13.25
2022-09-30T10:46:28.148Z,13.47
2022-09-30T10:48:57.939Z,13.54
2022-09-30T10:51:29.628Z,13.59
2022-09-30T10:53:59.264Z,13.69
2022-09-30T10:56:39.186Z,13.69
2022-09-30T10:59:16.569Z,13.82
2022-09-30T11:01:47.264Z,13.92
2022-09-30T11:04:18.174Z,13.93
2022-09-30T11:06:47.518Z,14.03
2022-09-30T11:09:17.384Z,14.09
2022-09-30T11:11:47.182Z,14.10
2022-09-30T11:14:22.328Z,14.21
2022-09-30T11:16:54.133Z,14.04
2022-09-30T11:19:24.742Z,14.02
2022-09-30T11:21:54.938Z,13.97
2022-09-30T11:24:27.174Z,13.97
2022-09-30T11:27:00.279Z,13.96
2022-09-30T11:29:40.445Z,14.11
2022-09-30T11:32:12.335Z,14.26
2022-09-30T11:34:46.255Z,14.06
2022-09-30T11:37:16.946Z,14.10
2022-09-30T11:39:51.514Z,14.06
2022-09-30T11:42:23.353Z,14.15
2022-09-30T11:45:00.571Z,14.17
2022-09-30T11:47:37.327Z,14.25
2022-09-30T11:50:22.277Z,14.20
2022-09-30T11:52:54.298Z,14.10
2022-09-30T11:55:25.617Z,14.16
2022-09-30T11:57:56.350Z,14.25
2022-09-30T12:00:29.807Z,14.31
2022-09-30T12:03:01.738Z,14.41
2022-09-30T12:05:35.848Z,14.53
2022-09-30T12:08:06.826Z,14.50
2022-09-30T12:10:37.004Z,14.56
2022-09-30T12:13:07.702Z,14.59
2022-09-30T12:15:40.794Z,14.58
2022-09-30T12:18:13.476Z,14.65
2022-09-30T12:20:45.776Z,14.71
2022-09-30T12:23:17.701Z,14.77
2022-09-30T12:25:50.669Z,14.73
2022-09-30T12:28:35.739Z,14.78
2022-09-30T12:31:10.718Z,14.83
2022-09-30T12:33:48.449Z,14.88
2022-09-30T12:36:25.164Z,14.95
2022-09-30T12:39:18.855Z,14.97
2022-09-30T12:41:53.368Z,14.99
2022-09-30T12:44:42.888Z,15.04
2022-09-30T12:47:20.809Z,15.09
2022-09-30T12:49:51.812Z,15.08
2022-09-30T12:52:22.909Z,15.14
2022-09-30T12:54:53.800Z,15.14
2022-09-30T12:57:27.343Z,15.18
2022-09-30T12:59:57.784Z,15.17
2022-09-30T13:05:19.076Z,15.24
2022-09-30T13:08:03.600Z,15.33
2022-09-30T13:10:33.580Z,15.39
2022-09-30T13:13:19.764Z,15.33
2022-09-30T13:15:49.903Z,15.28
2022-09-30T13:18:34.862Z,15.20
2022-09-30T13:21:21.449Z,15.26
2022-09-30T13:23:54.457Z,15.28
2022-09-30T13:26:35.144Z,15.35
2022-09-30T13:29:19.873Z,15.39
2022-09-30T13:32:05.748Z,15.47
2022-09-30T13:34:36.877Z,15.57
2022-09-30T13:37:07.472Z,15.59
2022-09-30T13:39:50.315Z,15.64
2022-09-30T13:42:20.815Z,15.72
2022-09-30T13:45:02.060Z,15.72
2022-09-30T13:47:32.979Z,15.74
2022-09-30T13:50:03.824Z,15.78
2022-09-30T13:52:34.815Z,15.74
2022-09-30T13:55:10.138Z,15.66
2022-09-30T13:57:43.154Z,15.58
2022-09-30T14:00:15.199Z,15.67
2022-09-30T14:03:04.147Z,15.71
2022-09-30T14:05:51.617Z,15.69
2022-09-30T14:08:36.701Z,15.71
2022-09-30T14:11:12.930Z,15.68
2022-09-30T14:13:47.366Z,15.70
2022-09-30T14:16:32.155Z,15.73
2022-09-30T14:19:13.466Z,15.74
2022-09-30T14:21:44.648Z,15.77
2022-09-30T14:24:16.224Z,15.82
2022-09-30T14:26:56.488Z,15.85
2022-09-30T14:29:27.438Z,15.88
2022-09-30T14:31:56.815Z,15.95
2022-09-30T14:34:27.319Z,15.95
2022-09-30T14:36:56.647Z,15.99
2022-09-30T14:39:27.429Z,15.97
2022-09-30T14:42:01.291Z,15.98
2022-09-30T14:44:31.193Z,16.00
2022-09-30T14:47:01.495Z,15.99
2022-09-30T14:49:34.375Z,16.01
2022-09-30T14:52:04.690Z,15.99
2022-09-30T14:54:34.656Z,15.92
2022-09-30T14:57:16.321Z,15.89
2022-09-30T14:59:45.610Z,15.81
2022-09-30T15:02:15.678Z,15.78
2022-09-30T15:04:50.925Z,15.78
2022-09-30T15:07:20.344Z,15.80
2022-09-30T15:09:50.895Z,15.73
2022-09-30T15:12:23.643Z,15.71
2022-09-30T15:14:54.036Z,15.68
2022-09-30T15:17:23.832Z,15.72
2022-09-30T15:19:53.430Z,15.68
2022-09-30T15:22:22.725Z,15.64
2022-09-30T15:24:52.190Z,15.63
2022-09-30T15:27:25.153Z,15.59
2022-09-30T15:29:57.928Z,15.54
2022-09-30T15:32:27.509Z,15.46
2022-09-30T15:34:58.783Z,15.47
2022-09-30T15:37:33.367Z,15.42
2022-09-30T15:40:15.301Z,15.36
2022-09-30T15:42:49.340Z,15.29
2022-09-30T15:45:34.626Z,15.30
2022-09-30T15:48:05.391Z,15.27
2022-09-30T15:50:38.293Z,15.24
2022-09-30T15:53:08.010Z,15.21
2022-09-30T15:55:43.103Z,15.19
2022-09-30T15:58:27.556Z,15.21
2022-09-30T16:01:10.758Z,15.19
2022-09-30T16:03:40.149Z,15.17
2022-09-30T16:06:09.960Z,15.16
2022-09-30T16:08:42.247Z,15.16
2022-09-30T16:11:11.600Z,15.13
2022-09-30T16:13:40.908Z,15.13
2022-09-30T16:16:16.341Z,15.09
2022-09-30T16:18:46.261Z,15.08
2022-09-30T16:21:29.827Z,15.06
2022-09-30T16:23:59.200Z,15.04
2022-09-30T16:26:31.281Z,15.00
2022-09-30T16:29:08.235Z,14.91
2022-09-30T16:31:42.586Z,14.92
2022-09-30T16:34:11.906Z,14.86
2022-09-30T16:36:41.200Z,14.83
2022-09-30T16:39:11.031Z,14.88
2022-09-30T16:41:40.377Z,14.80
2022-09-30T16:44:09.696Z,14.74
2022-09-30T16:46:39.264Z,14.66
2022-09-30T16:49:13.882Z,14.60
2022-09-30T16:51:43.212Z,14.50
2022-09-30T16:54:12.972Z,14.50
2022-09-30T16:56:42.459Z,14.43
2022-09-30T16:59:13.296Z,14.36
2022-09-30T17:01:42.627Z,14.30
2022-09-30T17:04:16.593Z,14.26
2022-09-30T17:06:46.496Z,14.18
2022-09-30T17:09:15.807Z,14.15
2022-09-30T17:11:45.566Z,14.00
2022-09-30T17:14:17.006Z,13.93
2022-09-30T17:16:46.613Z,13.89
2022-09-30T17:19:18.561Z,13.82
2022-09-30T17:21:47.870Z,13.70
2022-09-30T17:24:17.160Z,13.63
2022-09-30T17:26:46.619Z,13.59
2022-09-30T17:29:33.008Z,13.49
2022-09-30T17:32:02.699Z,13.42
2022-09-30T17:34:34.717Z,13.38
2022-09-30T17:37:04.072Z,13.33
2022-09-30T17:39:33.396Z,13.27
2022-09-30T17:42:15.172Z,13.10
2022-09-30T17:44:44.509Z,13.04
2022-09-30T17:47:13.812Z,12.99
2022-09-30T17:49:45.788Z,12.94
2022-09-30T17:52:15.576Z,12.87
2022-09-30T17:54:47.559Z,12.84
2022-09-30T17:57:20.996Z,12.68
2022-09-30T17:59:50.275Z,12.61
2022-09-30T18:02:21.176Z,12.49
2022-09-30T18:04:54.299Z,12.44
2022-09-30T18:07:25.516Z,12.36
2022-09-30T18:09:54.863Z,12.31
2022-09-30T18:12:24.134Z,12.30
2022-09-30T18:14:53.504Z,12.20
2022-09-30T18:17:23.716Z,12.17
2022-09-30T18:19:55.639Z,12.11
2022-09-30T18:22:24.942Z,12.14
2022-09-30T18:25:06.694Z,12.09
2022-09-30T18:27:36.484Z,12.08
2022-09-30T18:30:06.278Z,12.07
2022-09-30T18:32:35.608Z,11.96
2022-09-30T18:35:12.197Z,11.96
2022-09-30T18:37:42.366Z,11.99
2022-09-30T18:40:13.032Z,11.94
2022-09-30T18:42:42.369Z,11.94
2022-09-30T18:45:12.651Z,12.04
2022-09-30T18:47:42.369Z,12.06
2022-09-30T18:50:17.297Z,12.09
2022-09-30T18:52:46.600Z,12.08
2022-09-30T18:55:16.092Z,12.03
2022-09-30T18:57:48.313Z,12.06
2022-09-30T19:00:17.657Z,12.07
2022-09-30T19:02:47.048Z,12.10
2022-09-30T19:05:19.618Z,12.01
2022-09-30T19:07:49.155Z,11.99
2022-09-30T19:10:18.561Z,12.04
2022-09-30T19:12:47.864Z,12.12
2022-09-30T19:15:17.888Z,12.16
2022-09-30T19:17:48.771Z,12.23
2022-09-30T19:20:20.636Z,12.23
2022-09-30T19:22:51.819Z,12.31
2022-09-30T19:25:21.192Z,12.35
2022-09-30T19:27:50.932Z,12.43
2022-09-30T19:30:20.882Z,12.46
2022-09-30T19:32:53.393Z,12.50
2022-09-30T19:35:36.843Z,12.50
2022-09-30T19:38:09.491Z,12.54
2022-09-30T19:40:38.864Z,12.57
2022-09-30T19:43:08.214Z,12.59
2022-09-30T19:45:37.723Z,12.62
2022-09-30T19:48:07.441Z,12.61
2022-09-30T19:50:40.340Z,12.62
2022-09-30T19:53:10.947Z,12.62
2022-09-30T19:55:49.738Z,12.63
2022-09-30T19:58:21.000Z,12.62
2022-09-30T20:00:56.302Z,12.59
2022-09-30T20:03:28.152Z,12.60
2022-09-30T20:06:05.724Z,12.59
2022-09-30T20:08:35.705Z,12.59
2022-09-30T20:11:05.511Z,12.60
2022-09-30T20:13:34.937Z,12.55
2022-09-30T20:16:02.283Z,12.56
2022-09-30T20:18:31.616Z,12.55
2022-09-30T20:21:03.538Z,12.55
2022-09-30T20:23:32.939Z,12.53
2022-09-30T20:26:03.478Z,12.53
2022-09-30T20:28:32.980Z,12.48
2022-09-30T20:31:02.380Z,12.47
2022-09-30T20:33:31.691Z,12.32
2022-09-30T20:36:05.063Z,12.28
2022-09-30T20:38:34.347Z,12.27
2022-09-30T20:41:04.356Z,12.33
2022-09-30T20:43:35.226Z,12.30
2022-09-30T20:46:05.234Z,12.21
2022-09-30T20:48:34.833Z,12.22
2022-09-30T20:51:09.545Z,12.23
2022-09-30T20:53:39.643Z,12.19
2022-09-30T20:56:09.891Z,12.17
2022-09-30T20:58:39.995Z,12.16
2022-09-30T21:01:10.290Z,12.16
2022-09-30T21:03:40.244Z,12.19
2022-09-30T21:06:12.365Z,12.18
2022-09-30T21:08:42.859Z,12.17
2022-09-30T21:11:12.197Z,12.21
2022-09-30T21:13:44.290Z,12.21
2022-09-30T21:16:15.021Z,12.23
2022-09-30T21:18:44.431Z,12.21
2022-09-30T21:21:16.809Z,12.17
2022-09-30T21:23:46.112Z,12.17
2022-09-30T21:26:16.974Z,12.20
2022-09-30T21:28:49.393Z,12.15
2022-09-30T21:31:20.329Z,12.17
2022-09-30T21:33:52.513Z,12.19
2022-09-30T21:36:24.545Z,12.20
2022-09-30T21:38:54.878Z,12.19
2022-09-30T21:41:24.582Z,12.19
2022-09-30T21:43:54.063Z,12.20
2022-09-30T21:46:23.684Z,12.19
2022-09-30T21:48:54.041Z,12.22
2022-09-30T21:51:28.108Z,12.25
2022-09-30T21:53:58.203Z,12.19
2022-09-30T21:56:28.193Z,12.17
2022-09-30T21:58:57.604Z,12.15
2022-09-30T22:01:26.944Z,12.17
2022-09-30T22:03:56.310Z,12.19
2022-09-30T22:06:28.557Z,12.24
2022-09-30T22:08:58.227Z,12.18
2022-09-30T22:11:27.536Z,12.21
2022-09-30T22:13:57.918Z,12.20
2022-09-30T22:16:30.870Z,12.19
2022-09-30T22:19:00.858Z,12.21
2022-09-30T22:21:34.419Z,12.19
2022-09-30T22:24:04.566Z,12.22
2022-09-30T22:26:34.017Z,12.23
2022-09-30T22:29:04.521Z,12.26
2022-09-30T22:31:34.705Z,12.24
2022-09-30T22:34:17.053Z,12.24
2022-09-30T22:37:01.525Z,12.22
2022-09-30T22:39:30.835Z,12.22
2022-09-30T22:42:00.435Z,12.27
2022-09-30T22:44:30.291Z,12.25
2022-09-30T22:47:00.436Z,12.22
2022-09-30T22:49:32.216Z,12.20
2022-09-30T22:52:04.565Z,12.20
2022-09-30T22:54:33.909Z,12.21
2022-09-30T22:57:03.223Z,12.20
2022-09-30T22:59:32.618Z,12.16
2022-09-30T23:02:01.999Z,12.20
2022-09-30T23:04:32.416Z,12.20
2022-09-30T23:07:06.537Z,12.26
2022-09-30T23:09:35.822Z,12.22
2022-09-30T23:12:05.278Z,12.30
2022-09-30T23:14:34.589Z,12.25
2022-09-30T23:17:03.947Z,12.18
2022-09-30T23:19:33.270Z,12.18
2022-09-30T23:22:05.168Z,12.18
2022-09-30T23:24:34.472Z,12.16
2022-09-30T23:27:03.760Z,12.13
2022-09-30T23:29:33.039Z,12.14
2022-09-30T23:32:02.475Z,12.14
2022-09-30T23:34:31.886Z,12.17
2022-09-30T23:37:01.171Z,12.18
2022-09-30T23:39:33.059Z,12.18
2022-09-30T23:42:02.366Z,12.20
2022-09-30T23:44:31.642Z,12.11
2022-09-30T23:47:13.391Z,12.12
2022-09-30T23:49:43.120Z,12.20
2022-09-30T23:52:13.435Z,12.12
2022-09-30T23:54:45.630Z,12.10
2022-09-30T23:57:15.107Z,12.13
2022-09-30T23:59:44.511Z,12.12
